Airfield :
LOGIN :

Register | Disclaimer

   EN    FR    IT 

 










Legend :    VFR   Marginal VFR   IFR   Intensive IFR   Very Intensive IFR
Visi :
Ceiling :
>= 8 km
>= 3000ft
5 to 8 km
1000 to 3000 ft
1500m to 5 km
500 to 1000 ft
800 to 1500m
200 to 500 ft
< 800m
< 200 ft
Symbols :   Thunderstorms  Fog  Heavy snow  Heavy precipitations  Wind > 20 kt
SIGMETs :     Misc.  Thunderstorms  Icing  Turbulence  Mountain Waves  Volcanic Ashes







- Airport Elevation : 600 ft
- IATA code : VIE


LOWW - Vienna Schwechat

CURRENT METAR :
  • 220120Z 29010KT 9999 DZ FEW028 BKN034 08/04 Q1023 TEMPO RA

EXPIRED METARs :
  • 220050Z 31012KT 9999 -RA FEW028 BKN034 08/04 Q1024 NOSIG
  • 220020Z 30012KT 9999 SCT038 BKN048 09/02 Q1024 NOSIG
  • 212350Z 32010KT 9999 FEW038 BKN048 10/02 Q1024 NOSIG
  • 212320Z 32009KT 9999 FEW038 BKN050 10/02 Q1024 NOSIG
  • 212250Z 32013KT 9999 FEW038 BKN050 OVC160 10/02 Q1024 NOSIG

TAF AMD TAF LOWW
Valid from the 22 at 01:00 until the 23 at 06:00 UTC


220101Z 2201/2306 31012KT 9999 FEW040 BKN060 TX10/2201Z TNM06/2306Z
TEMPO 2201/2203 32015KT 8000 RA FEW020 BKN030
TEMPO 2203/2211 32017G27KT 6000 SHRA BKN020
BECMG 2211/2213 36014KT CAVOK
TEMPO 2211/2219 36020G35KT
No reported NOTAMs for that airfield.



MET'MAP, your aeronautical weather chart ! - Copyright ORBIFLY December 2007 - Disclaimer

ORBIFLY MET'MAP TEAM :

Programming & Development : Alexandra Zaïnal
Concept & Development : Baudouin d'Aumeries
Co-Development & Prog : Marc-Olivier Méhu
Technical & hardware support : Manuel Goepfert

Contact : metmap@orbifly.com




SOURCES & CREDITS :

   NOAA